createdAt,value
2018-11-20T00:01:37.048Z,-2.50
2018-11-20T00:04:28.236Z,-2.50
2018-11-20T00:07:32.379Z,-2.50
2018-11-20T00:10:20.458Z,-2.60
2018-11-20T00:13:15.427Z,-2.60
2018-11-20T00:16:11.196Z,-2.70
2018-11-20T00:19:00.179Z,-2.60
2018-11-20T00:21:49.891Z,-2.70
2018-11-20T00:24:39.215Z,-2.80
2018-11-20T00:27:42.488Z,-2.80
2018-11-20T00:30:30.189Z,-2.80
2018-11-20T00:33:22.079Z,-2.70
2018-11-20T00:36:20.610Z,-2.70
2018-11-20T00:39:19.078Z,-2.80
2018-11-20T00:42:02.596Z,-2.80
2018-11-20T00:45:07.311Z,-2.80
2018-11-20T00:48:02.161Z,-2.70
2018-11-20T00:51:10.673Z,-2.80
2018-11-20T00:54:00.334Z,-2.80
2018-11-20T00:57:07.689Z,-2.80
2018-11-20T01:00:00.576Z,-2.70
2018-11-20T01:02:50.098Z,-2.70
2018-11-20T01:05:38.025Z,-2.60
2018-11-20T01:08:35.824Z,-2.30
2018-11-20T01:11:26.491Z,-2.10
2018-11-20T01:14:16.913Z,-2.10
2018-11-20T01:17:09.998Z,-2.20
2018-11-20T01:20:16.894Z,-1.90
2018-11-20T01:23:21.202Z,-1.70
2018-11-20T01:26:25.578Z,-1.60
2018-11-20T01:29:25.103Z,-1.70
2018-11-20T01:32:19.321Z,-1.70
2018-11-20T01:35:01.384Z,-1.60
2018-11-20T01:38:02.554Z,-1.60
2018-11-20T01:40:56.759Z,-1.40
2018-11-20T01:44:04.874Z,-1.40
2018-11-20T01:46:48.842Z,-1.40
2018-11-20T01:49:37.746Z,-1.50
2018-11-20T01:52:26.370Z,-1.40
2018-11-20T01:55:13.972Z,-1.30
2018-11-20T01:57:56.446Z,-1.30
2018-11-20T02:01:00.014Z,-1.20
2018-11-20T02:03:48.903Z,-1.10
2018-11-20T02:06:55.901Z,-1.00
2018-11-20T02:09:53.760Z,-1.10
2018-11-20T02:12:57.463Z,-1.10
2018-11-20T02:15:59.536Z,-1.10
2018-11-20T02:19:02.296Z,-1.00
2018-11-20T02:21:50.873Z,-0.90
2018-11-20T02:24:44.260Z,-0.90
2018-11-20T02:27:36.807Z,-0.90
2018-11-20T02:30:23.704Z,-1.00
2018-11-20T02:33:19.108Z,-1.00
2018-11-20T02:36:16.911Z,-0.90
2018-11-20T02:39:03.585Z,-0.90
2018-11-20T02:41:51.925Z,-0.90
2018-11-20T02:44:44.159Z,-0.90
2018-11-20T02:47:38.434Z,-0.90
2018-11-20T02:50:27.676Z,-0.90
2018-11-20T02:53:14.705Z,-0.90
2018-11-20T02:56:19.287Z,-1.00
2018-11-20T02:59:14.736Z,-1.00
2018-11-20T03:02:12.446Z,-1.10
2018-11-20T03:05:00.903Z,-1.20
2018-11-20T03:07:51.337Z,-1.20
2018-11-20T03:10:39.315Z,-1.20
2018-11-20T03:13:27.034Z,-1.10
2018-11-20T03:16:17.599Z,-1.00
2018-11-20T03:19:06.074Z,-1.10
2018-11-20T03:21:56.847Z,-1.10
2018-11-20T03:24:45.634Z,-1.10
2018-11-20T03:27:34.150Z,-1.10
2018-11-20T03:30:43.164Z,-1.20
2018-11-20T03:33:34.335Z,-1.10
2018-11-20T03:36:22.207Z,-1.10
2018-11-20T03:39:17.364Z,-1.20
2018-11-20T03:42:24.185Z,-1.10
2018-11-20T03:45:19.610Z,-1.10
2018-11-20T03:48:15.373Z,-1.10
2018-11-20T03:51:03.043Z,-1.10
2018-11-20T03:54:03.388Z,-1.10
2018-11-20T03:56:49.780Z,-1.10
2018-11-20T03:59:37.332Z,-1.10
2018-11-20T04:02:44.163Z,-1.10
2018-11-20T04:05:38.503Z,-1.10
2018-11-20T04:08:24.900Z,-0.90
2018-11-20T04:11:24.457Z,-0.80
2018-11-20T04:14:31.506Z,-0.80
2018-11-20T04:17:29.815Z,-0.80
2018-11-20T04:20:18.771Z,-0.90
2018-11-20T04:23:07.994Z,-0.90
2018-11-20T04:25:59.603Z,-0.90
2018-11-20T04:28:36.406Z,-0.90
2018-11-20T04:31:45.644Z,-0.90
2018-11-20T04:34:34.198Z,-0.90
2018-11-20T04:37:29.573Z,-0.90
2018-11-20T04:40:25.587Z,-0.90
2018-11-20T04:43:12.727Z,-1.00
2018-11-20T04:46:01.516Z,-1.00
2018-11-20T04:48:48.857Z,-1.00
2018-11-20T04:51:53.505Z,-1.00
2018-11-20T04:54:57.097Z,-1.00
2018-11-20T04:57:53.310Z,-1.00
2018-11-20T05:01:00.007Z,-1.00
2018-11-20T05:03:55.431Z,-1.10
2018-11-20T05:06:44.759Z,-1.10
2018-11-20T05:09:43.140Z,-1.10
2018-11-20T05:12:40.750Z,-1.10
2018-11-20T05:15:28.754Z,-1.10
2018-11-20T05:18:17.894Z,-1.10
2018-11-20T05:21:16.676Z,-1.10
2018-11-20T05:24:16.919Z,-1.20
2018-11-20T05:27:04.176Z,-1.10
2018-11-20T05:29:54.757Z,-1.20
2018-11-20T05:32:42.921Z,-1.20
2018-11-20T05:35:34.424Z,-1.30
2018-11-20T05:38:24.965Z,-1.30
2018-11-20T05:41:16.456Z,-1.20
2018-11-20T05:44:09.647Z,-1.20
2018-11-20T05:46:59.230Z,-1.20
2018-11-20T05:49:46.420Z,-1.20
2018-11-20T05:52:40.523Z,-1.20
2018-11-20T05:55:31.168Z,-1.20
2018-11-20T05:58:38.137Z,-1.20
2018-11-20T06:01:35.003Z,-1.10
2018-11-20T06:04:33.697Z,-1.10
2018-11-20T06:07:40.219Z,-1.00
2018-11-20T06:10:32.493Z,-1.00
2018-11-20T06:13:23.015Z,-1.00
2018-11-20T06:16:12.430Z,-1.00
2018-11-20T06:18:59.721Z,-1.00
2018-11-20T06:21:48.440Z,-1.00
2018-11-20T06:24:41.826Z,-0.90
2018-11-20T06:27:28.956Z,-0.90
2018-11-20T06:30:18.173Z,-0.80
2018-11-20T06:33:05.689Z,-0.80
2018-11-20T06:35:54.576Z,-0.80
2018-11-20T06:38:42.884Z,-0.80
2018-11-20T06:41:40.848Z,-0.80
2018-11-20T06:44:45.286Z,-0.70
2018-11-20T06:47:37.619Z,-0.70
2018-11-20T06:50:38.146Z,-0.60
2018-11-20T06:53:35.564Z,-0.60
2018-11-20T06:56:22.582Z,-0.60
2018-11-20T06:59:14.318Z,-0.50
2018-11-20T07:02:08.092Z,-0.50
2018-11-20T07:04:51.987Z,-0.50
2018-11-20T07:07:40.169Z,-0.50
2018-11-20T07:10:22.968Z,-0.50
2018-11-20T07:13:30.031Z,-0.40
2018-11-20T07:16:56.947Z,-0.40
2018-11-20T07:19:54.749Z,-0.30
2018-11-20T07:22:48.022Z,-0.30
2018-11-20T07:25:46.211Z,-0.30
2018-11-20T07:28:34.520Z,-0.30
2018-11-20T07:31:25.487Z,-0.40
2018-11-20T07:34:15.787Z,-0.30
2018-11-20T07:37:15.519Z,-0.40
2018-11-20T07:40:10.309Z,-0.30
2018-11-20T07:42:53.956Z,-0.30
2018-11-20T07:45:46.216Z,-0.30
2018-11-20T07:48:37.704Z,-0.40
2018-11-20T07:51:24.082Z,-0.40
2018-11-20T07:54:12.476Z,-0.30
2018-11-20T07:57:19.561Z,-0.30
2018-11-20T08:00:07.181Z,-0.30
2018-11-20T08:02:54.796Z,-0.30
2018-11-20T08:05:48.291Z,-0.30
2018-11-20T08:08:43.581Z,-0.20
2018-11-20T08:11:31.628Z,-0.20
2018-11-20T08:14:29.093Z,-0.20
2018-11-20T08:17:20.414Z,-0.10
2018-11-20T08:20:16.065Z,-0.10
2018-11-20T08:23:16.843Z,-0.10
2018-11-20T08:26:15.408Z,-0.10
2018-11-20T08:29:02.014Z,-0.10
2018-11-20T08:32:10.394Z,-0.10
2018-11-20T08:34:51.445Z,-0.10
2018-11-20T08:37:46.712Z,-0.10
2018-11-20T08:40:34.327Z,-0.10
2018-11-20T08:43:41.538Z,0.00
2018-11-20T08:46:34.562Z,0.10
2018-11-20T08:49:24.609Z,0.10
2018-11-20T08:52:12.982Z,0.20
2018-11-20T08:55:10.731Z,0.20
2018-11-20T08:57:59.478Z,0.30
2018-11-20T09:00:59.199Z,0.30
2018-11-20T09:04:02.927Z,0.30
2018-11-20T09:06:50.385Z,0.40
2018-11-20T09:09:39.919Z,0.40
2018-11-20T09:12:41.524Z,0.40
2018-11-20T09:15:37.833Z,0.50
2018-11-20T09:18:32.056Z,0.50
2018-11-20T09:21:32.853Z,0.50
2018-11-20T09:24:26.365Z,0.50
2018-11-20T09:27:14.541Z,0.50
2018-11-20T09:30:01.621Z,0.60
2018-11-20T09:33:01.167Z,0.60
2018-11-20T09:35:49.015Z,0.60
2018-11-20T09:38:45.130Z,0.60
2018-11-20T09:41:36.593Z,0.60
2018-11-20T09:44:45.666Z,0.60
2018-11-20T09:47:39.760Z,0.60
2018-11-20T09:50:31.068Z,0.60
2018-11-20T09:53:27.363Z,0.60
2018-11-20T09:56:34.464Z,0.60
2018-11-20T09:59:34.292Z,0.60
2018-11-20T10:02:22.472Z,0.60
2018-11-20T10:05:13.128Z,0.60
2018-11-20T10:08:05.712Z,0.60
2018-11-20T10:10:53.860Z,0.60
2018-11-20T10:13:53.490Z,0.60
2018-11-20T10:16:42.166Z,0.60
2018-11-20T10:19:37.645Z,0.60
2018-11-20T10:22:32.023Z,0.60
2018-11-20T10:25:22.224Z,0.60
2018-11-20T10:28:08.386Z,0.60
2018-11-20T10:30:56.868Z,0.60
2018-11-20T10:33:51.825Z,0.60
2018-11-20T10:36:38.937Z,0.70
2018-11-20T10:39:48.298Z,0.60
2018-11-20T10:42:36.959Z,0.60
2018-11-20T10:45:25.114Z,0.60
2018-11-20T10:48:11.762Z,0.60
2018-11-20T10:50:59.076Z,0.60
2018-11-20T10:53:40.260Z,0.50
2018-11-20T10:56:31.942Z,0.60
2018-11-20T10:59:20.233Z,0.60
2018-11-20T11:02:08.433Z,0.60
2018-11-20T11:04:55.383Z,0.60
2018-11-20T11:07:43.659Z,0.60
2018-11-20T11:10:35.062Z,0.50
2018-11-20T11:13:24.258Z,0.50
2018-11-20T11:16:15.684Z,0.50
2018-11-20T11:19:07.499Z,0.60
2018-11-20T11:21:58.886Z,0.50
2018-11-20T11:25:00.324Z,0.50
2018-11-20T11:27:58.015Z,0.40
2018-11-20T11:30:49.467Z,0.30
2018-11-20T11:33:38.368Z,0.40
2018-11-20T11:36:28.778Z,0.50
2018-11-20T11:39:15.743Z,0.50
2018-11-20T11:42:03.648Z,0.50
2018-11-20T11:44:51.872Z,0.50
2018-11-20T11:47:38.860Z,0.50
2018-11-20T11:50:45.925Z,0.30
2018-11-20T11:53:53.935Z,0.30
2018-11-20T11:56:48.323Z,0.30
2018-11-20T11:59:34.951Z,0.20
2018-11-20T12:05:16.241Z,0.10
2018-11-20T12:08:19.732Z,0.20
2018-11-20T12:11:10.190Z,0.20
2018-11-20T12:14:09.633Z,0.30
2018-11-20T12:16:57.979Z,0.30
2018-11-20T12:19:38.312Z,0.20
2018-11-20T12:22:32.859Z,0.30
2018-11-20T12:25:19.475Z,0.30
2018-11-20T12:28:23.286Z,0.20
2018-11-20T12:31:11.945Z,0.20
2018-11-20T12:34:00.050Z,0.10
2018-11-20T12:37:06.378Z,0.20
2018-11-20T12:40:03.276Z,0.10
2018-11-20T12:42:50.078Z,0.10
2018-11-20T12:45:50.774Z,0.00
2018-11-20T12:48:38.469Z,0.10
2018-11-20T12:51:30.461Z,0.10
2018-11-20T12:54:19.021Z,0.00
2018-11-20T12:57:07.313Z,-0.20
2018-11-20T13:00:02.056Z,-0.20
2018-11-20T13:03:05.505Z,-0.10
2018-11-20T13:06:00.625Z,-0.10
2018-11-20T13:09:08.736Z,-0.30
2018-11-20T13:12:04.183Z,-0.30
2018-11-20T13:14:53.107Z,-0.20
2018-11-20T13:17:40.049Z,-0.20
2018-11-20T13:20:24.913Z,-0.20
2018-11-20T13:23:19.987Z,-0.20
2018-11-20T13:26:20.869Z,-0.40
2018-11-20T13:29:08.300Z,-0.30
2018-11-20T13:32:05.481Z,-0.30
2018-11-20T13:34:53.816Z,-0.40
2018-11-20T13:37:41.937Z,-0.40
2018-11-20T13:40:52.281Z,-0.30
2018-11-20T13:43:43.919Z,-0.40
2018-11-20T13:46:33.119Z,-0.40
2018-11-20T13:49:19.745Z,-0.50
2018-11-20T13:52:17.673Z,-0.40
2018-11-20T13:55:07.215Z,-0.30
2018-11-20T13:57:49.347Z,-0.40
2018-11-20T14:00:35.474Z,-0.40
2018-11-20T14:03:31.644Z,-0.40
2018-11-20T14:06:18.330Z,-0.40
2018-11-20T14:09:04.696Z,-0.40
2018-11-20T14:11:51.830Z,-0.40
2018-11-20T14:14:44.745Z,-0.40
2018-11-20T14:17:44.185Z,-0.40
2018-11-20T14:20:51.180Z,-0.30
2018-11-20T14:23:47.765Z,-0.40
2018-11-20T14:26:42.196Z,-0.40
2018-11-20T14:29:38.065Z,-0.40
2018-11-20T14:32:26.788Z,-0.40
2018-11-20T14:35:19.806Z,-0.40
2018-11-20T14:38:24.635Z,-0.40
2018-11-20T14:41:30.422Z,-0.40
2018-11-20T14:44:19.895Z,-0.60
2018-11-20T14:47:10.299Z,-0.60
2018-11-20T14:49:57.102Z,-0.70
2018-11-20T14:52:52.577Z,-0.70
2018-11-20T14:55:44.209Z,-0.80
2018-11-20T14:58:42.030Z,-0.80
2018-11-20T15:01:33.711Z,-0.90
2018-11-20T15:04:41.574Z,-0.90
2018-11-20T15:07:32.663Z,-0.90
2018-11-20T15:10:33.976Z,-0.80
2018-11-20T15:13:25.377Z,-0.80
2018-11-20T15:16:19.934Z,-0.70
2018-11-20T15:19:23.450Z,-0.80
2018-11-20T15:22:01.257Z,-0.80
2018-11-20T15:25:05.289Z,-0.70
2018-11-20T15:27:58.927Z,-0.70
2018-11-20T15:30:58.657Z,-0.70
2018-11-20T15:33:40.077Z,-0.70
2018-11-20T15:36:29.422Z,-0.70
2018-11-20T15:39:21.369Z,-0.70
2018-11-20T15:42:08.661Z,-0.70
2018-11-20T15:44:56.119Z,-0.70
2018-11-20T15:47:37.215Z,-0.70
2018-11-20T15:50:28.772Z,-0.60
2018-11-20T15:53:17.681Z,-0.60
2018-11-20T15:56:09.544Z,-0.60
2018-11-20T15:58:55.013Z,-0.60
2018-11-20T16:01:43.260Z,-0.60
2018-11-20T16:04:36.987Z,-0.60
2018-11-20T16:07:26.536Z,-0.60
2018-11-20T16:10:05.298Z,-0.60
2018-11-20T16:17:57.398Z,-0.50
2018-11-20T16:20:44.106Z,-0.50
2018-11-20T16:23:47.395Z,-0.50
2018-11-20T16:26:38.109Z,-0.50
2018-11-20T16:29:25.078Z,-0.40
2018-11-20T16:32:19.611Z,-0.40
2018-11-20T16:35:14.067Z,-0.40
2018-11-20T16:38:14.521Z,-0.40
2018-11-20T16:41:16.061Z,-0.40
2018-11-20T16:44:03.000Z,-0.40
2018-11-20T16:46:50.935Z,-0.40
2018-11-20T16:49:41.579Z,-0.40
2018-11-20T16:52:27.899Z,-0.40
2018-11-20T16:55:27.575Z,-0.30
2018-11-20T16:58:15.472Z,-0.30
2018-11-20T17:00:56.375Z,-0.30
2018-11-20T17:03:46.945Z,-0.30
2018-11-20T17:06:38.576Z,-0.30
2018-11-20T17:09:44.089Z,-0.30
2018-11-20T17:12:34.604Z,-0.30
2018-11-20T17:15:24.068Z,-0.20
2018-11-20T17:18:14.256Z,-0.20
2018-11-20T17:21:09.586Z,-0.20
2018-11-20T17:24:03.649Z,-0.20
2018-11-20T17:27:06.343Z,-0.20
2018-11-20T17:30:12.816Z,-0.20
2018-11-20T17:33:04.991Z,-0.20
2018-11-20T17:35:57.860Z,-0.10
2018-11-20T17:39:05.922Z,-0.10
2018-11-20T17:41:57.666Z,-0.10
2018-11-20T17:44:47.258Z,-0.10
2018-11-20T17:47:33.457Z,-0.10
2018-11-20T17:50:24.111Z,-0.10
2018-11-20T17:53:15.925Z,-0.10
2018-11-20T17:56:10.252Z,0.00
2018-11-20T17:59:05.953Z,0.00
2018-11-20T18:01:52.711Z,0.00
2018-11-20T18:04:37.214Z,0.00
2018-11-20T18:07:24.772Z,0.00
2018-11-20T18:10:06.459Z,0.00
2018-11-20T18:12:55.351Z,0.00
2018-11-20T18:15:44.478Z,0.00
2018-11-20T18:18:33.356Z,0.10
2018-11-20T18:21:20.074Z,0.10
2018-11-20T18:24:09.572Z,0.10
2018-11-20T18:27:02.935Z,0.10
2018-11-20T18:29:53.017Z,0.10
2018-11-20T18:32:41.589Z,0.10
2018-11-20T18:35:49.786Z,0.10
2018-11-20T18:38:56.299Z,0.10
2018-11-20T18:41:43.556Z,0.10
2018-11-20T18:44:31.547Z,0.10
2018-11-20T18:47:36.483Z,0.20
2018-11-20T18:50:25.713Z,0.20
2018-11-20T18:53:13.353Z,0.20
2018-11-20T18:56:05.000Z,0.20
2018-11-20T18:58:56.444Z,0.20
2018-11-20T19:01:57.968Z,0.20
2018-11-20T19:04:44.991Z,0.20
2018-11-20T19:07:46.341Z,0.20
2018-11-20T19:10:33.921Z,0.30
2018-11-20T19:13:20.958Z,0.30
2018-11-20T19:16:14.037Z,0.30
2018-11-20T19:19:01.698Z,0.40
2018-11-20T19:21:50.380Z,0.40
2018-11-20T19:24:37.688Z,0.40
2018-11-20T19:27:32.317Z,0.40
2018-11-20T19:30:32.405Z,0.40
2018-11-20T19:33:22.189Z,0.40
2018-11-20T19:36:07.623Z,0.50
2018-11-20T19:38:55.538Z,0.50
2018-11-20T19:42:03.755Z,0.50
2018-11-20T19:45:01.611Z,0.60
2018-11-20T19:47:58.246Z,1.50
2018-11-20T19:50:49.274Z,2.10
2018-11-20T19:53:36.537Z,2.30
2018-11-20T19:56:24.408Z,2.50
2018-11-20T19:59:32.729Z,3.00
2018-11-20T20:02:21.073Z,3.20
2018-11-20T20:05:15.426Z,3.30
2018-11-20T20:08:13.384Z,3.40
2018-11-20T20:11:05.326Z,3.40
2018-11-20T20:14:03.722Z,3.50
2018-11-20T20:17:02.021Z,3.40
2018-11-20T20:19:50.025Z,3.50
2018-11-20T20:22:51.410Z,3.50
2018-11-20T20:25:40.890Z,3.60
2018-11-20T20:28:30.097Z,3.40
2018-11-20T20:31:25.778Z,3.50
2018-11-20T20:34:11.528Z,3.50
2018-11-20T20:37:07.748Z,3.50
2018-11-20T20:39:54.728Z,3.40
2018-11-20T20:42:41.705Z,3.40
2018-11-20T20:45:36.985Z,3.40
2018-11-20T20:48:24.252Z,3.50
2018-11-20T20:51:19.125Z,3.50
2018-11-20T20:54:12.389Z,3.40
2018-11-20T20:56:52.999Z,3.40
2018-11-20T20:59:42.436Z,3.40
2018-11-20T21:02:30.926Z,3.40
2018-11-20T21:05:26.114Z,3.50
2018-11-20T21:08:14.364Z,3.50
2018-11-20T21:11:00.842Z,3.60
2018-11-20T21:13:46.947Z,3.60
2018-11-20T21:16:46.134Z,3.60
2018-11-20T21:19:38.785Z,3.50
2018-11-20T21:22:29.842Z,3.50
2018-11-20T21:25:27.877Z,3.50
2018-11-20T21:28:14.448Z,3.50
2018-11-20T21:31:22.876Z,3.40
2018-11-20T21:34:13.226Z,3.50
2018-11-20T21:37:00.161Z,3.40
2018-11-20T21:39:43.184Z,3.50
2018-11-20T21:42:33.222Z,3.50
2018-11-20T21:45:39.480Z,3.50
2018-11-20T21:48:25.503Z,3.40
2018-11-20T21:51:12.124Z,3.40
2018-11-20T21:54:02.165Z,3.40
2018-11-20T21:56:49.845Z,3.40
2018-11-20T21:59:44.550Z,3.40
2018-11-20T22:02:35.326Z,3.40
2018-11-20T22:05:22.446Z,3.50
2018-11-20T22:08:19.343Z,3.60
2018-11-20T22:11:08.617Z,3.60
2018-11-20T22:13:43.060Z,3.60
2018-11-20T22:16:28.840Z,3.60
2018-11-20T22:19:14.546Z,3.60
2018-11-20T22:22:03.781Z,3.60
2018-11-20T22:24:48.102Z,3.60
2018-11-20T22:27:47.630Z,3.70
2018-11-20T22:30:29.127Z,3.70
2018-11-20T22:33:16.951Z,3.70
2018-11-20T22:36:05.323Z,3.70
2018-11-20T22:38:50.348Z,3.80
2018-11-20T22:41:33.030Z,3.80
2018-11-20T22:44:37.455Z,3.80
2018-11-20T22:47:24.338Z,3.70
2018-11-20T22:50:12.130Z,3.70
2018-11-20T22:52:48.171Z,3.80
2018-11-20T22:55:36.603Z,3.80
2018-11-20T22:58:39.534Z,3.80
2018-11-20T23:01:33.770Z,3.80
2018-11-20T23:04:24.371Z,3.90
2018-11-20T23:07:26.636Z,3.80
2018-11-20T23:09:56.557Z,3.80
2018-11-20T23:12:30.638Z,3.80
2018-11-20T23:15:02.143Z,3.90
2018-11-20T23:17:31.852Z,3.90
2018-11-20T23:20:02.304Z,3.90
2018-11-20T23:22:34.755Z,3.90
2018-11-20T23:25:06.623Z,3.90
2018-11-20T23:27:40.886Z,3.80
2018-11-20T23:30:11.236Z,3.90
2018-11-20T23:32:40.273Z,4.00
2018-11-20T23:35:09.238Z,4.00
2018-11-20T23:37:38.347Z,4.00
2018-11-20T23:40:13.969Z,4.00
2018-11-20T23:42:44.094Z,4.00
2018-11-20T23:45:15.536Z,4.10
2018-11-20T23:47:47.370Z,4.00
2018-11-20T23:50:18.660Z,4.00
2018-11-20T23:52:48.539Z,4.10
2018-11-20T23:55:18.795Z,4.10
2018-11-20T23:57:49.839Z,4.10
